Time;durP1;ratioP1;P1;durP2;ratioP2;P2;SDS_P1;SDS_P2;PMS_P1;PMS_P2;Temp;Humidity;BMP_temperature;BMP_pressure;BME280_temperature;BME280_humidity;BME280_pressure;Samples;Min_cycle;Max_cycle;Signal;HPM_P1;HPM_P2
2023/09/30 00:01:41;;;;;;;11.07;2.80;;;12.70;99.90;;;;;;5071728;28;20047;-80
2023/09/30 00:04:07;;;;;;;11.93;3.33;;;12.70;99.90;;;;;;5055197;28;20043;-80
2023/09/30 00:06:32;;;;;;;11.07;3.08;;;12.70;99.90;;;;;;5053569;28;20037;-80
2023/09/30 00:08:58;;;;;;;12.52;3.15;;;12.80;99.90;;;;;;5055097;28;20059;-80
2023/09/30 00:11:23;;;;;;;11.32;3.00;;;12.80;99.90;;;;;;5070882;28;20119;-80
2023/09/30 00:13:50;;;;;;;10.68;2.72;;;12.70;99.90;;;;;;5053768;28;20037;-79
2023/09/30 00:16:17;;;;;;;9.38;2.75;;;12.70;99.90;;;;;;5052752;28;20036;-80
2023/09/30 00:18:43;;;;;;;9.80;3.03;;;12.70;99.90;;;;;;5054606;28;20105;-80
2023/09/30 00:21:09;;;;;;;12.45;3.28;;;12.60;99.90;;;;;;5054398;28;20131;-80
2023/09/30 00:23:34;;;;;;;12.23;2.92;;;12.60;99.90;;;;;;5054937;28;20044;-80
2023/09/30 00:26:00;;;;;;;14.02;3.20;;;12.60;99.90;;;;;;5046384;28;20505;-80
2023/09/30 00:28:26;;;;;;;9.77;2.47;;;12.70;99.90;;;;;;5035019;28;20045;-80
2023/09/30 00:30:52;;;;;;;9.38;3.00;;;12.70;99.90;;;;;;5068241;28;20074;-80
2023/09/30 00:33:17;;;;;;;8.32;2.63;;;12.60;99.90;;;;;;5054805;28;20044;-79
2023/09/30 00:35:43;;;;;;;9.63;2.85;;;12.50;99.90;;;;;;5069713;28;20463;-78
2023/09/30 00:38:10;;;;;;;8.88;2.70;;;12.50;99.90;;;;;;5071511;28;20094;-80
2023/09/30 00:40:35;;;;;;;9.38;3.10;;;12.50;99.90;;;;;;5053370;28;20135;-81
2023/09/30 00:43:01;;;;;;;8.23;2.90;;;12.50;99.90;;;;;;5088258;28;20128;-80
2023/09/30 00:45:27;;;;;;;7.03;2.35;;;12.50;99.90;;;;;;5055014;28;20546;-80
2023/09/30 00:47:53;;;;;;;9.23;2.78;;;12.40;99.90;;;;;;5070696;28;20389;-80
2023/09/30 00:50:22;;;;;;;12.07;3.03;;;12.40;99.90;;;;;;5057098;28;20037;-80
2023/09/30 00:52:49;;;;;;;9.52;2.75;;;12.40;99.90;;;;;;5069009;28;20068;-81
2023/09/30 00:55:16;;;;;;;13.00;3.22;;;12.40;99.90;;;;;;5054670;28;20509;-80
2023/09/30 00:57:44;;;;;;;11.38;3.22;;;12.40;99.90;;;;;;5054119;28;20131;-80
2023/09/30 01:00:11;;;;;;;13.35;3.03;;;12.40;99.90;;;;;;5070823;28;20473;-80
2023/09/30 01:02:40;;;;;;;11.85;3.60;;;12.40;99.90;;;;;;5056810;28;20084;-79
2023/09/30 01:05:07;;;;;;;12.40;2.97;;;12.50;99.90;;;;;;5034979;28;20059;-80
2023/09/30 01:07:34;;;;;;;8.48;2.58;;;12.50;99.90;;;;;;5062647;28;20066;-80
2023/09/30 01:09:59;;;;;;;11.02;2.90;;;12.40;99.90;;;;;;5074209;28;20041;-79
2023/09/30 01:12:25;;;;;;;13.50;2.80;;;12.40;99.90;;;;;;5073338;28;20032;-80
2023/09/30 01:14:56;;;;;;;12.57;2.90;;;12.40;99.90;;;;;;5056686;28;20174;-79
2023/09/30 01:17:22;;;;;;;9.32;2.80;;;12.50;99.90;;;;;;5073637;28;20036;-78
2023/09/30 01:19:49;;;;;;;10.63;2.97;;;12.50;99.90;;;;;;5058359;28;20043;-79
2023/09/30 01:22:16;;;;;;;9.02;2.80;;;12.40;99.90;;;;;;5063655;28;20120;-79
2023/09/30 01:24:42;;;;;;;11.77;3.20;;;12.40;99.90;;;;;;5058025;28;20041;-79
2023/09/30 01:27:09;;;;;;;11.60;3.20;;;12.40;99.90;;;;;;5073619;28;20476;-78
2023/09/30 01:29:35;;;;;;;13.38;3.47;;;12.40;99.90;;;;;;5057302;28;20510;-79
2023/09/30 01:32:01;;;;;;;11.13;3.40;;;12.50;99.90;;;;;;5073541;28;20041;-80
2023/09/30 01:34:27;;;;;;;10.60;3.05;;;12.50;99.90;;;;;;5074767;28;20456;-80
2023/09/30 01:36:53;;;;;;;12.45;3.50;;;12.60;99.90;;;;;;5074730;28;20378;-80
2023/09/30 01:39:19;;;;;;;10.23;2.75;;;12.60;99.90;;;;;;5055181;28;20039;-79
2023/09/30 01:41:45;;;;;;;11.27;3.17;;;12.50;99.90;;;;;;5057612;28;20132;-78
2023/09/30 01:44:10;;;;;;;10.88;3.25;;;12.60;99.90;;;;;;5073359;28;20119;-77
2023/09/30 01:46:36;;;;;;;11.88;2.80;;;12.60;99.90;;;;;;5074260;28;20033;-79
2023/09/30 01:49:03;;;;;;;11.15;2.97;;;12.60;99.90;;;;;;5072434;28;20066;-81
2023/09/30 01:51:29;;;;;;;10.32;2.95;;;12.50;99.90;;;;;;5074373;28;20400;-80
2023/09/30 01:53:55;;;;;;;10.40;2.83;;;12.40;99.90;;;;;;5056986;28;20431;-79
2023/09/30 01:56:21;;;;;;;8.55;2.80;;;12.40;99.90;;;;;;5055834;28;20058;-79
2023/09/30 01:58:46;;;;;;;7.80;2.67;;;12.50;99.90;;;;;;5073282;28;20041;-80
2023/09/30 02:01:12;;;;;;;11.05;3.40;;;12.50;99.90;;;;;;5073964;28;20127;-78
2023/09/30 02:03:38;;;;;;;10.07;3.30;;;12.40;99.90;;;;;;5069896;28;20097;-78
2023/09/30 02:06:04;;;;;;;9.80;2.92;;;12.40;99.90;;;;;;5053904;28;20443;-78
2023/09/30 02:08:30;;;;;;;8.98;2.67;;;12.40;99.90;;;;;;5053817;28;20485;-80
2023/09/30 02:10:55;;;;;;;12.13;3.40;;;12.40;99.90;;;;;;5072230;28;20040;-80
2023/09/30 02:13:21;;;;;;;12.55;3.70;;;12.40;99.90;;;;;;5056104;28;20058;-79
2023/09/30 02:15:47;;;;;;;12.30;3.67;;;12.50;99.90;;;;;;5057062;28;20047;-78
2023/09/30 02:18:12;;;;;;;10.88;3.63;;;12.50;99.90;;;;;;5073236;28;20455;-78
2023/09/30 02:20:39;;;;;;;9.40;3.38;;;12.60;99.90;;;;;;5053549;28;20066;-78
2023/09/30 02:23:10;;;;;;;10.77;3.63;;;12.60;99.90;;;;;;5056068;28;20386;-78
2023/09/30 02:25:39;;;;;;;12.57;3.58;;;12.60;99.90;;;;;;5071961;28;20051;-78
2023/09/30 02:28:06;;;;;;;15.18;3.88;;;12.60;99.90;;;;;;5057083;28;20501;-79
2023/09/30 02:30:31;;;;;;;12.27;3.50;;;12.70;99.90;;;;;;5052300;28;20492;-78
2023/09/30 02:32:57;;;;;;;13.38;3.88;;;12.70;99.90;;;;;;5072667;28;20044;-78
2023/09/30 02:35:23;;;;;;;10.80;3.60;;;12.70;99.90;;;;;;5055898;28;20572;-80
2023/09/30 02:37:52;;;;;;;12.13;3.35;;;12.70;99.90;;;;;;5056890;28;20135;-79
2023/09/30 02:40:19;;;;;;;10.10;3.22;;;12.80;99.90;;;;;;5055767;28;20040;-78
2023/09/30 02:42:45;;;;;;;12.20;3.88;;;12.80;99.90;;;;;;5056559;28;20033;-78
2023/09/30 02:45:12;;;;;;;10.50;3.92;;;12.80;99.90;;;;;;5063627;28;20036;-78
2023/09/30 02:47:39;;;;;;;12.88;3.95;;;12.70;99.90;;;;;;5052249;28;20120;-78
2023/09/30 02:50:08;;;;;;;11.65;3.63;;;12.70;99.90;;;;;;5072245;28;20479;-78
2023/09/30 02:52:33;;;;;;;11.45;3.85;;;12.70;99.90;;;;;;5072020;28;20090;-78
2023/09/30 02:54:59;;;;;;;13.70;4.28;;;12.70;99.90;;;;;;5055202;28;20040;-79
2023/09/30 02:57:27;;;;;;;12.18;3.78;;;12.70;99.90;;;;;;5052240;28;20127;-80
2023/09/30 02:59:54;;;;;;;9.60;3.78;;;12.70;99.90;;;;;;5052372;28;20124;-80
2023/09/30 03:02:21;;;;;;;13.63;4.05;;;12.70;99.90;;;;;;5072613;28;20040;-79
2023/09/30 03:04:47;;;;;;;13.23;4.20;;;12.70;99.90;;;;;;5067806;28;20032;-80
2023/09/30 03:07:14;;;;;;;13.70;4.13;;;12.80;99.90;;;;;;5056170;28;20496;-79
2023/09/30 03:09:39;;;;;;;13.20;4.60;;;12.80;99.90;;;;;;5051060;28;20051;-78
2023/09/30 03:12:05;;;;;;;13.05;4.22;;;12.80;99.90;;;;;;5056122;28;20045;-79
2023/09/30 03:14:31;;;;;;;10.73;3.88;;;12.80;99.90;;;;;;5054846;28;20409;-79
2023/09/30 03:16:58;;;;;;;13.13;4.30;;;12.90;99.90;;;;;;5055882;28;20117;-79
2023/09/30 03:19:24;;;;;;;12.15;4.32;;;12.80;99.90;;;;;;5051792;28;20417;-79
2023/09/30 03:21:50;;;;;;;13.98;4.03;;;12.90;99.90;;;;;;5088397;28;20048;-79
2023/09/30 03:24:16;;;;;;;14.40;4.57;;;12.90;99.90;;;;;;5070269;28;20036;-78
2023/09/30 03:26:42;;;;;;;13.13;4.22;;;12.90;99.90;;;;;;5056014;28;20429;-79
2023/09/30 03:29:08;;;;;;;13.27;4.70;;;12.90;99.90;;;;;;5054030;28;20090;-79
2023/09/30 03:31:35;;;;;;;11.35;4.47;;;12.90;99.90;;;;;;5070878;28;20504;-79
2023/09/30 03:34:02;;;;;;;13.23;4.32;;;12.90;99.90;;;;;;5072161;28;20567;-79
2023/09/30 03:36:28;;;;;;;13.98;4.50;;;12.90;99.90;;;;;;5058484;28;20112;-79
2023/09/30 03:38:56;;;;;;;14.75;4.38;;;12.90;99.90;;;;;;5064995;28;20048;-79
2023/09/30 03:41:22;;;;;;;11.00;3.65;;;12.90;99.90;;;;;;5054267;28;20042;-79
2023/09/30 03:43:49;;;;;;;13.90;4.55;;;12.90;99.90;;;;;;5054277;28;20491;-79
2023/09/30 03:46:15;;;;;;;11.65;4.35;;;12.90;99.90;;;;;;5072079;28;20047;-79
2023/09/30 03:48:42;;;;;;;14.43;4.85;;;13.00;99.90;;;;;;5054576;28;20369;-79
2023/09/30 03:51:15;;;;;;;12.32;4.60;;;13.00;99.90;;;;;;5068748;28;20075;-79
2023/09/30 03:53:41;;;;;;;12.60;4.70;;;13.00;99.90;;;;;;5055284;28;20041;-79
2023/09/30 03:56:07;;;;;;;11.40;4.32;;;12.90;99.90;;;;;;5064181;28;20200;-79
2023/09/30 03:58:33;;;;;;;11.82;4.93;;;12.90;99.90;;;;;;5046686;28;20516;-79
2023/09/30 04:01:04;;;;;;;13.88;4.50;;;12.90;99.90;;;;;;5059818;28;20036;-80
2023/09/30 04:03:29;;;;;;;13.27;4.50;;;13.00;99.90;;;;;;5069771;28;20123;-78
2023/09/30 04:05:56;;;;;;;13.85;5.13;;;12.90;99.90;;;;;;5066491;28;20119;-79
2023/09/30 04:08:22;;;;;;;13.13;4.38;;;12.90;99.90;;;;;;5069724;28;20044;-79
2023/09/30 04:10:47;;;;;;;9.88;4.22;;;12.90;99.90;;;;;;5057184;28;20045;-80
2023/09/30 04:13:13;;;;;;;11.63;4.70;;;12.80;99.90;;;;;;5063450;28;20408;-79
2023/09/30 04:15:39;;;;;;;15.45;4.90;;;12.90;99.90;;;;;;5070889;28;20043;-78
2023/09/30 04:18:05;;;;;;;11.43;4.60;;;12.90;99.90;;;;;;5070206;28;20040;-79
2023/09/30 04:20:31;;;;;;;10.45;4.32;;;12.90;99.90;;;;;;5052314;28;20036;-79
2023/09/30 04:22:57;;;;;;;13.30;4.47;;;12.80;99.90;;;;;;5052785;28;20032;-78
2023/09/30 04:25:26;;;;;;;14.85;4.80;;;12.80;99.90;;;;;;5070626;28;20499;-79
2023/09/30 04:27:52;;;;;;;11.20;4.88;;;12.80;99.90;;;;;;5053376;28;20123;-78
2023/09/30 04:30:18;;;;;;;11.40;4.50;;;12.80;99.90;;;;;;5054452;28;20032;-78
2023/09/30 04:32:43;;;;;;;13.13;4.65;;;12.70;99.90;;;;;;5052609;28;20764;-79
2023/09/30 04:35:10;;;;;;;13.75;4.47;;;12.70;99.90;;;;;;5052224;28;20032;-79
2023/09/30 04:37:36;;;;;;;11.30;4.35;;;12.60;99.90;;;;;;5068641;28;20043;-79
2023/09/30 04:40:15;;;;;;;12.68;4.40;;;12.60;99.90;;;;;;5054130;28;20051;-79
2023/09/30 04:42:43;;;;;;;12.40;4.72;;;12.60;99.90;;;;;;5067503;28;20045;-78
2023/09/30 04:45:11;;;;;;;16.55;4.90;;;12.60;99.90;;;;;;5063187;28;20378;-79
2023/09/30 04:47:38;;;;;;;12.63;4.90;;;12.60;99.90;;;;;;5061355;28;20508;-78
2023/09/30 04:50:07;;;;;;;13.73;5.47;;;12.60;99.90;;;;;;5070466;28;20056;-78
2023/09/30 04:52:33;;;;;;;15.30;4.68;;;12.60;99.90;;;;;;5072190;28;20041;-78
2023/09/30 04:54:59;;;;;;;11.55;4.40;;;12.70;99.90;;;;;;5063339;28;20037;-78
2023/09/30 04:57:26;;;;;;;11.27;4.75;;;12.60;99.90;;;;;;5087854;28;20050;-79
2023/09/30 04:59:52;;;;;;;11.45;4.72;;;12.60;99.90;;;;;;5071329;28;20048;-79
2023/09/30 05:02:17;;;;;;;13.30;4.97;;;12.60;99.90;;;;;;5072029;28;20048;-78
2023/09/30 05:04:43;;;;;;;14.00;4.75;;;12.60;99.90;;;;;;5056273;28;20063;-79
2023/09/30 05:07:09;;;;;;;13.50;5.10;;;12.60;99.90;;;;;;5068445;28;20048;-79
2023/09/30 05:09:34;;;;;;;12.30;4.82;;;12.60;99.90;;;;;;5057369;28;20041;-78
2023/09/30 05:12:00;;;;;;;13.20;4.70;;;12.60;99.90;;;;;;5054269;28;20048;-78
2023/09/30 05:14:27;;;;;;;11.65;4.30;;;12.60;99.90;;;;;;5057784;28;20045;-78
2023/09/30 05:16:53;;;;;;;11.23;4.75;;;12.50;99.90;;;;;;5056176;28;20530;-78
2023/09/30 05:19:20;;;;;;;13.52;4.93;;;12.60;99.90;;;;;;5055071;28;20040;-78
2023/09/30 05:21:47;;;;;;;13.45;4.82;;;12.50;99.90;;;;;;5063529;28;20062;-78
2023/09/30 05:24:12;;;;;;;11.48;4.45;;;12.50;99.90;;;;;;5057210;28;20484;-78
2023/09/30 05:26:38;;;;;;;14.52;4.80;;;12.50;99.90;;;;;;5051705;28;20051;-78
2023/09/30 05:29:04;;;;;;;16.08;5.07;;;12.50;99.90;;;;;;5074158;28;20033;-78
2023/09/30 05:31:29;;;;;;;10.88;4.53;;;12.50;99.90;;;;;;5062812;28;20044;-79
2023/09/30 05:33:55;;;;;;;10.52;4.30;;;12.40;99.90;;;;;;5057061;28;20060;-78
2023/09/30 05:36:21;;;;;;;11.23;4.28;;;12.40;99.90;;;;;;5072173;28;20074;-78
2023/09/30 05:38:47;;;;;;;12.68;4.57;;;12.30;99.90;;;;;;5068929;28;20043;-78
2023/09/30 05:41:14;;;;;;;15.70;13.65;;;12.20;99.90;;;;;;5073730;28;20111;-78
2023/09/30 05:43:43;;;;;;;11.02;5.50;;;12.20;99.90;;;;;;5072760;28;20472;-78
2023/09/30 05:46:08;;;;;;;11.40;4.53;;;12.20;99.90;;;;;;5072408;28;20075;-78
2023/09/30 05:48:34;;;;;;;10.60;4.63;;;12.20;99.90;;;;;;5056617;28;20430;-78
2023/09/30 05:51:00;;;;;;;13.70;5.57;;;12.30;99.90;;;;;;5070622;28;20028;-78
2023/09/30 05:53:27;;;;;;;13.10;4.78;;;12.30;99.90;;;;;;5062734;28;20370;-78
2023/09/30 05:55:53;;;;;;;8.55;4.25;;;12.30;99.90;;;;;;5054593;28;20444;-78
2023/09/30 05:58:19;;;;;;;11.48;4.13;;;12.30;99.90;;;;;;5063831;28;20127;-79
2023/09/30 06:00:44;;;;;;;10.13;4.30;;;12.20;99.90;;;;;;5090285;28;20045;-79
2023/09/30 06:03:12;;;;;;;9.27;4.63;;;12.20;99.90;;;;;;5071680;28;20101;-78
2023/09/30 06:05:41;;;;;;;12.00;4.25;;;12.20;99.90;;;;;;5072674;28;20036;-78
2023/09/30 06:08:10;;;;;;;11.00;4.82;;;12.10;99.90;;;;;;5054268;28;20065;-78
2023/09/30 06:10:37;;;;;;;10.43;5.10;;;12.20;99.90;;;;;;5055515;28;20090;-78
2023/09/30 06:13:03;;;;;;;15.73;5.55;;;12.20;99.90;;;;;;5056236;28;20041;-78
2023/09/30 06:15:29;;;;;;;12.80;5.53;;;12.10;99.90;;;;;;5072415;28;20044;-77
2023/09/30 06:17:56;;;;;;;12.63;5.20;;;12.20;99.90;;;;;;5073939;28;20047;-78
2023/09/30 06:20:22;;;;;;;12.95;4.57;;;12.20;99.90;;;;;;5064096;28;20060;-78
2023/09/30 06:22:53;;;;;;;13.10;5.53;;;12.30;99.90;;;;;;5053592;28;20080;-78
2023/09/30 06:25:20;;;;;;;13.50;5.55;;;12.30;99.90;;;;;;5064033;28;20420;-78
2023/09/30 06:27:47;;;;;;;12.85;5.10;;;12.30;99.90;;;;;;5090470;28;20036;-78
2023/09/30 06:30:15;;;;;;;14.40;5.90;;;12.30;99.90;;;;;;5089597;28;20074;-78
2023/09/30 06:32:42;;;;;;;13.85;5.55;;;12.30;99.90;;;;;;5090559;28;20519;-78
2023/09/30 06:35:10;;;;;;;14.82;5.75;;;12.30;99.90;;;;;;5084228;28;20511;-78
2023/09/30 06:37:37;;;;;;;15.23;6.25;;;12.30;99.90;;;;;;5053313;28;20080;-78
2023/09/30 06:40:04;;;;;;;13.60;5.80;;;12.30;99.90;;;;;;5041858;28;20091;-78
2023/09/30 06:42:31;;;;;;;17.25;6.13;;;12.30;99.90;;;;;;5056598;28;20036;-78
2023/09/30 06:44:57;;;;;;;14.20;5.97;;;12.40;99.90;;;;;;5071622;28;20029;-78
2023/09/30 06:47:23;;;;;;;13.02;6.22;;;12.50;99.90;;;;;;5071980;28;20040;-78
2023/09/30 06:49:49;;;;;;;14.13;5.82;;;12.50;99.90;;;;;;5073387;28;20055;-78
2023/09/30 06:52:15;;;;;;;12.93;6.35;;;12.50;99.90;;;;;;5053918;28;20033;-78
2023/09/30 06:54:40;;;;;;;12.40;5.93;;;12.60;99.90;;;;;;5036388;28;20044;-78
2023/09/30 06:57:06;;;;;;;14.77;6.43;;;12.60;99.90;;;;;;5060010;28;20041;-78
2023/09/30 06:59:35;;;;;;;16.63;7.18;;;12.60;99.90;;;;;;5073152;28;20127;-78
2023/09/30 07:02:00;;;;;;;12.48;7.00;;;12.60;99.90;;;;;;5088572;28;20041;-77
2023/09/30 07:04:26;;;;;;;13.27;7.30;;;12.60;99.90;;;;;;5073067;28;20046;-77
2023/09/30 07:06:53;;;;;;;14.68;6.68;;;12.60;99.90;;;;;;5087983;28;20508;-78
2023/09/30 07:09:19;;;;;;;13.98;6.80;;;12.70;99.90;;;;;;5056005;28;20050;-77
2023/09/30 07:11:45;;;;;;;17.88;8.65;;;12.70;99.90;;;;;;5072128;28;20048;-77
2023/09/30 07:14:11;;;;;;;15.20;7.28;;;12.80;99.90;;;;;;5054480;28;20518;-78
2023/09/30 07:16:37;;;;;;;15.75;7.40;;;12.90;99.90;;;;;;5056086;28;20051;-77
2023/09/30 07:19:02;;;;;;;14.82;7.80;;;12.90;99.90;;;;;;5064923;28;20036;-77
2023/09/30 07:21:28;;;;;;;19.05;7.55;;;12.90;99.90;;;;;;5055778;28;20385;-77
2023/09/30 07:23:54;;;;;;;16.20;6.80;;;13.00;99.90;;;;;;5053536;28;20036;-77
2023/09/30 07:26:24;;;;;;;16.15;8.43;;;13.10;99.90;;;;;;5072253;28;20469;-77
2023/09/30 07:28:50;;;;;;;13.80;7.05;;;13.20;99.90;;;;;;5053130;28;20496;-78
2023/09/30 07:31:15;;;;;;;14.23;7.00;;;13.20;99.90;;;;;;5055881;28;20075;-78
2023/09/30 07:33:41;;;;;;;15.55;8.32;;;13.20;99.90;;;;;;5054944;28;20033;-78
2023/09/30 07:36:07;;;;;;;16.38;7.75;;;13.30;99.90;;;;;;5064463;28;20454;-78
2023/09/30 07:38:32;;;;;;;16.65;6.72;;;13.30;99.90;;;;;;5068296;28;20040;-78
2023/09/30 07:41:00;;;;;;;14.35;6.80;;;13.40;99.90;;;;;;5072182;28;20131;-77
2023/09/30 07:43:28;;;;;;;14.30;7.53;;;13.50;99.90;;;;;;5071161;28;20614;-78
2023/09/30 07:45:53;;;;;;;17.58;6.97;;;13.60;99.90;;;;;;5055445;28;20040;-78
2023/09/30 07:48:19;;;;;;;18.60;7.95;;;13.60;99.90;;;;;;5070901;28;20051;-78
2023/09/30 07:50:45;;;;;;;14.75;7.03;;;13.70;99.90;;;;;;5055325;28;20063;-78
2023/09/30 07:53:12;;;;;;;14.13;7.32;;;13.90;99.90;;;;;;5088880;28;20040;-78
2023/09/30 07:55:37;;;;;;;13.82;7.13;;;13.90;99.90;;;;;;5080987;28;20110;-77
2023/09/30 07:58:03;;;;;;;14.25;7.78;;;14.00;99.90;;;;;;5073485;28;20049;-78
2023/09/30 08:00:29;;;;;;;15.02;7.07;;;14.00;99.90;;;;;;5077226;28;20037;-78
2023/09/30 08:02:55;;;;;;;15.57;6.75;;;14.00;99.90;;;;;;5088711;28;20127;-78
2023/09/30 08:05:20;;;;;;;15.43;7.05;;;14.10;99.90;;;;;;5087919;28;20064;-78
2023/09/30 08:07:46;;;;;;;15.57;7.32;;;14.10;99.90;;;;;;5071999;28;20039;-78
2023/09/30 08:10:16;;;;;;;16.70;6.70;;;14.30;99.90;;;;;;5070351;28;20025;-78
2023/09/30 08:12:44;;;;;;;15.05;6.07;;;14.30;99.90;;;;;;5067519;28;20044;-81
2023/09/30 08:15:13;;;;;;;15.90;6.85;;;14.40;99.90;;;;;;5054630;28;20040;-85
2023/09/30 08:17:40;;;;;;;13.60;6.68;;;14.50;99.90;;;;;;5053743;28;20041;-81
2023/09/30 08:20:06;;;;;;;12.45;6.07;;;14.70;99.90;;;;;;5054670;28;20119;-79
2023/09/30 08:22:32;;;;;;;16.08;7.10;;;14.80;99.90;;;;;;5069960;28;20416;-79
2023/09/30 08:24:57;;;;;;;17.08;7.07;;;14.90;99.90;;;;;;5055327;28;20036;-80
2023/09/30 08:27:26;;;;;;;15.20;6.82;;;15.00;99.90;;;;;;5069992;28;20495;-79
2023/09/30 08:29:52;;;;;;;14.05;5.88;;;15.10;99.90;;;;;;5065305;28;20058;-79
2023/09/30 08:32:17;;;;;;;12.80;5.30;;;15.20;99.90;;;;;;5068578;28;20036;-79
2023/09/30 08:34:43;;;;;;;12.65;5.38;;;15.30;99.90;;;;;;5052378;28;20382;-79
2023/09/30 08:37:09;;;;;;;14.45;6.22;;;15.40;99.90;;;;;;5070203;28;20040;-79
2023/09/30 08:39:40;;;;;;;14.13;5.28;;;15.50;99.90;;;;;;5069041;28;20093;-78
2023/09/30 08:42:11;;;;;;;13.43;6.00;;;15.50;99.90;;;;;;5069975;28;20049;-79
2023/09/30 08:44:39;;;;;;;14.43;5.63;;;15.60;99.90;;;;;;5051639;28;20059;-78
2023/09/30 08:47:06;;;;;;;11.95;5.05;;;15.60;99.90;;;;;;5053208;28;20561;-78
2023/09/30 08:49:37;;;;;;;11.80;4.88;;;15.70;99.90;;;;;;5052932;28;20036;-78
2023/09/30 08:52:03;;;;;;;13.02;5.65;;;15.90;99.90;;;;;;5069971;28;20052;-78
2023/09/30 08:54:30;;;;;;;12.80;4.63;;;15.80;99.90;;;;;;5052227;28;20048;-78
2023/09/30 08:56:56;;;;;;;15.93;5.38;;;15.90;99.90;;;;;;5070508;28;20056;-78
2023/09/30 08:59:24;;;;;;;12.45;5.25;;;16.00;99.90;;;;;;5070201;28;20447;-78
2023/09/30 09:01:49;;;;;;;11.57;5.20;;;16.10;99.90;;;;;;5054266;28;20080;-78
2023/09/30 09:04:15;;;;;;;16.13;5.38;;;16.20;99.90;;;;;;5055693;28;20452;-78
2023/09/30 09:06:41;;;;;;;9.80;4.40;;;16.40;99.90;;;;;;5054097;28;20036;-79
2023/09/30 09:09:15;;;;;;;14.65;4.97;;;16.30;99.90;;;;;;5069640;28;20477;-78
2023/09/30 09:11:40;;;;;;;15.85;5.00;;;16.40;99.90;;;;;;5058546;28;20432;-78
2023/09/30 09:14:07;;;;;;;11.25;4.22;;;16.40;99.90;;;;;;5034256;28;20041;-78
2023/09/30 09:16:32;;;;;;;11.80;4.35;;;16.50;99.90;;;;;;5069995;28;20070;-78
2023/09/30 09:18:58;;;;;;;13.88;4.82;;;16.70;99.90;;;;;;5059310;28;20536;-78
2023/09/30 09:21:25;;;;;;;13.98;4.60;;;16.80;99.90;;;;;;5055766;28;20408;-78
2023/09/30 09:23:52;;;;;;;11.40;4.35;;;16.80;99.90;;;;;;5054274;28;20049;-78
2023/09/30 09:26:26;;;;;;;12.48;4.10;;;16.90;99.90;;;;;;5053028;28;20086;-78
2023/09/30 09:29:00;;;;;;;12.32;3.95;;;16.90;99.90;;;;;;5055973;28;20109;-78
2023/09/30 09:31:31;;;;;;;11.70;3.90;;;17.10;99.90;;;;;;5055706;28;20729;-78
2023/09/30 09:33:57;;;;;;;9.50;4.03;;;17.10;99.90;;;;;;5057874;28;20094;-78
2023/09/30 09:36:39;;;;;;;11.20;4.65;;;17.10;99.90;;;;;;5087155;28;20037;-78
2023/09/30 09:39:05;;;;;;;11.50;3.47;;;17.20;99.90;;;;;;5054369;28;20119;-78
2023/09/30 09:41:30;;;;;;;12.77;3.60;;;17.20;99.90;;;;;;5063854;28;20140;-78
2023/09/30 09:43:59;;;;;;;10.70;3.15;;;17.20;99.90;;;;;;5073357;28;20423;-78
2023/09/30 09:46:25;;;;;;;11.30;3.33;;;17.20;99.90;;;;;;5072688;28;20116;-78
2023/09/30 09:48:53;;;;;;;10.50;2.85;;;17.30;99.90;;;;;;5079322;28;20492;-78
2023/09/30 09:51:20;;;;;;;11.40;3.50;;;17.30;99.90;;;;;;5094539;28;20126;-78
2023/09/30 09:53:49;;;;;;;9.18;2.72;;;17.30;99.90;;;;;;5070258;28;20530;-78
2023/09/30 09:56:16;;;;;;;9.45;2.97;;;17.50;99.90;;;;;;5054044;28;20501;-78
2023/09/30 09:58:43;;;;;;;10.90;2.78;;;17.40;99.90;;;;;;5062869;28;20048;-78
2023/09/30 10:01:10;;;;;;;11.18;2.88;;;17.50;99.90;;;;;;5074427;28;20409;-78
2023/09/30 10:03:36;;;;;;;7.60;1.75;;;17.60;99.90;;;;;;5050828;28;20482;-78
2023/09/30 10:06:02;;;;;;;6.68;1.95;;;17.60;99.90;;;;;;5057971;28;20041;-78
2023/09/30 10:08:39;;;;;;;7.75;2.13;;;17.70;99.90;;;;;;5076178;28;20250;-78
2023/09/30 10:11:05;;;;;;;10.25;2.95;;;17.70;99.90;;;;;;5055000;28;20033;-79
2023/09/30 10:13:50;;;;;;;11.18;2.13;;;17.70;99.90;;;;;;5069990;28;20377;-78
2023/09/30 10:16:37;;;;;;;9.07;2.10;;;17.70;99.90;;;;;;5065130;28;20048;-78
2023/09/30 10:19:11;;;;;;;9.57;1.73;;;17.70;99.90;;;;;;5052138;28;20135;-78
2023/09/30 10:21:36;;;;;;;10.52;2.30;;;17.70;99.90;;;;;;5052078;28;20119;-78
2023/09/30 10:24:24;;;;;;;8.18;2.00;;;17.70;99.90;;;;;;5055574;28;20573;-78
2023/09/30 10:27:34;;;;;;;8.93;2.20;;;17.50;99.90;;;;;;5056679;28;20584;-78
2023/09/30 10:30:09;;;;;;;5.70;1.50;;;17.40;99.90;;;;;;5072789;28;20051;-79
2023/09/30 10:32:50;;;;;;;7.78;1.80;;;17.50;99.90;;;;;;5054321;28;20518;-78
2023/09/30 10:35:31;;;;;;;11.10;2.40;;;17.60;99.90;;;;;;5036802;28;20040;-78
2023/09/30 10:38:22;;;;;;;9.95;2.00;;;17.70;99.90;;;;;;5069617;28;20095;-79
2023/09/30 10:40:50;;;;;;;9.10;2.33;;;17.80;99.90;;;;;;5058682;28;20037;-79
2023/09/30 10:43:32;;;;;;;11.52;2.25;;;17.80;99.90;;;;;;5054587;28;20037;-79
2023/09/30 10:45:58;;;;;;;10.85;2.78;;;17.70;99.90;;;;;;5085596;28;20427;-79
2023/09/30 10:48:34;;;;;;;9.98;2.30;;;17.50;99.90;;;;;;5087422;28;20047;-79
2023/09/30 10:51:20;;;;;;;22.85;5.25;;;17.40;99.90;;;;;;5050503;28;20036;-79
2023/09/30 10:53:48;;;;;;;12.57;3.10;;;17.20;99.90;;;;;;5058305;28;20056;-79
2023/09/30 10:56:15;;;;;;;23.30;4.75;;;17.20;99.90;;;;;;5047257;28;20048;-79
2023/09/30 10:58:52;;;;;;;9.50;2.47;;;17.20;99.90;;;;;;5069173;28;20040;-79
2023/09/30 11:01:23;;;;;;;10.20;1.73;;;17.10;99.90;;;;;;5067741;28;20039;-79
2023/09/30 11:03:51;;;;;;;8.23;1.42;;;17.20;99.90;;;;;;5054944;28;20044;-79
2023/09/30 11:06:20;;;;;;;6.32;1.73;;;17.20;99.90;;;;;;5051262;28;20048;-79
2023/09/30 11:08:52;;;;;;;6.32;1.30;;;17.20;99.90;;;;;;5036170;28;20043;-79
2023/09/30 11:11:18;;;;;;;;;;;17.20;99.90;;;;;;5063963;28;20032;-79
2023/09/30 11:13:44;;;;;;;5.78;1.48;;;17.30;99.90;;;;;;5066253;28;19916;-79
2023/09/30 11:16:09;;;;;;;8.77;2.20;;;17.30;99.90;;;;;;5066121;28;20044;-79
2023/09/30 11:18:37;;;;;;;10.38;1.73;;;17.40;99.90;;;;;;5070868;28;20041;-79
2023/09/30 11:21:12;;;;;;;6.22;1.30;;;17.40;99.90;;;;;;5067473;28;20527;-79
2023/09/30 11:23:40;;;;;;;7.30;1.67;;;17.50;99.90;;;;;;5071509;28;20404;-93
2023/09/30 11:26:05;;;;;;;11.02;2.28;;;17.50;99.90;;;;;;5068448;28;20037;-93
2023/09/30 11:28:42;;;;;;;8.48;1.42;;;17.40;99.90;;;;;;5056545;28;20040;-92
2023/09/30 11:31:15;;;;;;;12.55;1.85;;;17.40;99.90;;;;;;5056226;28;20037;-93
2023/09/30 11:33:49;;;;;;;11.13;1.70;;;17.50;99.90;;;;;;5072682;28;20052;-94
2023/09/30 11:36:15;;;;;;;8.15;2.00;;;17.40;99.90;;;;;;5046541;28;20044;-93
2023/09/30 11:38:46;;;;;;;7.20;2.00;;;17.40;99.90;;;;;;5050541;28;20056;-94
2023/09/30 11:41:12;;;;;;;6.90;1.97;;;17.30;99.90;;;;;;5055862;28;20127;-94
2023/09/30 11:43:38;;;;;;;9.85;1.92;;;17.30;99.90;;;;;;5072192;28;20124;-94
2023/09/30 11:46:05;;;;;;;7.25;1.60;;;17.20;99.90;;;;;;5055031;28;20028;-94
2023/09/30 11:48:31;;;;;;;8.23;1.85;;;17.20;99.90;;;;;;5055330;28;20040;-85
2023/09/30 11:51:01;;;;;;;7.57;1.70;;;17.20;99.90;;;;;;5051129;28;20093;-76
2023/09/30 11:53:30;;;;;;;9.35;2.08;;;17.20;99.90;;;;;;5051990;28;20049;-76
2023/09/30 11:55:58;;;;;;;7.75;1.65;;;17.00;99.90;;;;;;5063431;28;20067;-76
2023/09/30 11:58:25;;;;;;;8.88;2.05;;;17.10;99.90;;;;;;5061336;28;20045;-76
2023/09/30 12:00:58;;;;;;;7.35;2.03;;;17.10;99.90;;;;;;5052994;28;20154;-76
2023/09/30 12:03:24;;;;;;;8.30;2.25;;;17.20;99.90;;;;;;5068246;28;20403;-76
2023/09/30 12:05:49;;;;;;;8.40;2.15;;;17.30;99.90;;;;;;5070839;28;20102;-76
2023/09/30 12:08:15;;;;;;;8.13;2.17;;;17.40;99.90;;;;;;5063598;28;20040;-76
2023/09/30 12:10:40;;;;;;;8.90;2.22;;;17.50;99.90;;;;;;5051982;28;20381;-76
2023/09/30 12:13:06;;;;;;;5.95;1.73;;;17.60;99.90;;;;;;5052472;28;20125;-77
2023/09/30 12:15:31;;;;;;;7.50;1.88;;;17.70;99.90;;;;;;5050116;28;20036;-76
2023/09/30 12:17:57;;;;;;;8.38;1.88;;;17.80;99.90;;;;;;5048781;28;20405;-76
2023/09/30 12:20:23;;;;;;;7.88;1.73;;;17.90;99.90;;;;;;5054409;28;20110;-76
2023/09/30 12:22:51;;;;;;;9.10;2.00;;;18.00;99.90;;;;;;5071588;28;20055;-76
2023/09/30 12:25:19;;;;;;;8.52;2.17;;;18.00;99.90;;;;;;5054293;28;20068;-76
2023/09/30 12:27:46;;;;;;;11.10;2.33;;;17.90;99.90;;;;;;5053120;28;20388;-76
2023/09/30 12:30:13;;;;;;;6.88;1.83;;;17.90;99.90;;;;;;5054345;28;20082;-76
2023/09/30 12:32:39;;;;;;;10.25;2.05;;;17.80;99.90;;;;;;5054878;28;20049;-76
2023/09/30 12:35:05;;;;;;;7.88;2.60;;;17.70;99.90;;;;;;5054319;28;20043;-76
2023/09/30 12:37:32;;;;;;;7.82;2.03;;;17.70;99.90;;;;;;5070225;28;20044;-76
2023/09/30 12:39:58;;;;;;;7.38;1.73;;;17.60;99.90;;;;;;5054062;28;20040;-76
2023/09/30 12:42:23;;;;;;;11.48;2.63;;;17.50;99.90;;;;;;5065263;28;20417;-76